ETIK

Illesheim Air Base Heliport

Storck Barracks, Germany
TAF AMD ETIK 161312Z 1611/1711 VRB06KT 9000 -SHRA BKN070 QNH2994INS BECMG 1614/1615 VRB06KT 9000 -SHRA BKN040 OVC240 QNH2982INS TEMPO 1615/1619 VRB10G15KT 8000 -TSRA BKN040CB BECMG 1618/1619 VRB06KT 9999 NSW FEW050 OVC240 QNH2988INS TX24/1614Z TN14/1703Z LAST NO AMDS AFT 1611 NEXT 1705
Issued Valid From Valid To
Jul-16 @ 13:12 UTC
(7 hours ago)
Jul-16 @ 11:00 UTC
(9 hours ago)
Jul-17 @ 11:00 UTC
(in 15 hours)
Expired Click to View Jul-16 @ 11:00 to Jul-16 @ 14:00
TAF AMD ETIK 161312Z 1611/1711 VRB06KT 9000 -SHRA BKN070 QNH2994INS
Wind Visibility Clouds Conditions Readings
Variable at 6 knots 8,996 meters
  • Broken at 7,000' AGL
  • Light Rain
Altimeter 29.94" Hg
Pressure 1014 hPa
Expired Click to View Jul-16 @ 14:00 to Jul-16 @ 18:00
BECMG 1614/1615 VRB06KT 9000 -SHRA BKN040 OVC240 QNH2982INS
Wind Visibility Clouds Conditions Readings
Variable at 6 knots 8,996 meters
  • Broken at 4,000' AGL
  • Overcast at 24,000' AGL
  • Light Rain
Altimeter 29.82" Hg
Pressure 1010 hPa
Expired Click to View Jul-16 @ 15:00 to Jul-16 @ 19:00
TEMPO 1615/1619 VRB10G15KT 8000 -TSRA BKN040CB
Wind Visibility Clouds Conditions
Variable at 10 knots
 Gusting to 15 knots
7,998 meters
  • Broken at 4,000' AGL
  • Light Thunderstorm
  • Light Rain
Becoming Jul-16 @ 18:00 to Jul-17 @ 11:00
BECMG 1618/1619 VRB06KT 9999 NSW FEW050 OVC240 QNH2988INS TX24/1614Z TN14/1703Z LAST NO AMDS AFT 1611 NEXT 1705
Wind Visibility Clouds Conditions Readings
Variable at 6 knots 10,000+ meters
  • Few at 5,000' AGL
  • Overcast at 24,000' AGL
Altimeter 29.88" Hg
Pressure 1012 hPa
TAF AMD ETIK 161312Z 1611/1711 VRB06KT 9000 -SHRA BKN070 QNH2994INS BECMG 1614/1615 VRB06KT 9000 -SHRA BKN040 OVC240 QNH2982INS TEMPO 1615/1619 VRB10G15KT 8000 -TSRA BKN040CB BECMG 1618/1619 VRB06KT 9999 NSW FEW050 OVC240 QNH2988INS TX24/1614Z TN14/1703Z LAST NO AMDS AFT 1611 NEXT 1705
Issued Jul-16 @ 13:12 UTC
(7 hours ago)
Valid From Jul-16 @ 11:00 UTC
(9 hours ago)
Valid To Jul-17 @ 11:00 UTC
(in 15 hours)
Jul-16 @ 11:00 - Jul-16 @ 14:00
Wind Visibility
Variable at 6 knots 8,996 meters
Clouds
  • Broken at 7,000' AGL
Conditions
  • Light Rain
Jul-16 @ 14:00 - Jul-16 @ 18:00
Wind Visibility
Variable at 6 knots 8,996 meters
Clouds
  • Broken at 4,000' AGL
  • Overcast at 24,000' AGL
Conditions
  • Light Rain
Jul-16 @ 15:00 - Jul-16 @ 19:00
Wind Visibility
Variable at 10 knots
 Gusting to 15 knots
7,998 meters
Clouds
  • Broken at 4,000' AGL
Conditions
  • Light Thunderstorm
  • Light Rain
Becoming Jul-16 @ 18:00 - Jul-17 @ 11:00
Wind Visibility
Variable at 6 knots 10,000+ meters
Clouds
  • Few at 5,000' AGL
  • Overcast at 24,000' AGL
Conditions